Time;durP1;ratioP1;P1;durP2;ratioP2;P2;SDS_P1;SDS_P2;PMS_P1;PMS_P2;Temp;Humidity;BMP_temperature;BMP_pressure;BME280_temperature;BME280_humidity;BME280_pressure;Samples;Min_cycle;Max_cycle;Signal;HPM_P1;HPM_P2
2022/06/11 00:01:57;;;;;;;1999.90;999.90;;;;;;;17.51;58.38;96036.16;5008192;28;20022;-67
2022/06/11 00:04:39;;;;;;;1999.90;999.90;;;;;;;17.50;58.74;96036.47;5008823;28;20034;-67
2022/06/11 00:07:09;;;;;;;1999.90;999.90;;;;;;;17.43;58.86;96028.91;5011774;28;20092;-67
2022/06/11 00:09:34;;;;;;;1999.90;999.90;;;;;;;17.41;58.84;96029.25;5011899;28;20049;-67
2022/06/11 00:12:00;;;;;;;1999.90;999.90;;;;;;;17.40;59.00;96029.56;5012720;28;20568;-67
2022/06/11 00:14:29;;;;;;;1999.90;999.90;;;;;;;17.40;59.01;96033.06;5012645;28;20064;-68
2022/06/11 00:16:54;;;;;;;1999.90;999.90;;;;;;;17.30;59.05;96029.94;5011795;28;20022;-67
2022/06/11 00:19:20;;;;;;;1999.90;999.90;;;;;;;17.30;59.08;96024.53;5011601;28;20026;-68
2022/06/11 00:21:47;;;;;;;1999.90;999.90;;;;;;;17.11;59.13;96012.31;5011177;28;20505;-67
2022/06/11 00:24:13;;;;;;;1999.90;999.90;;;;;;;17.34;58.85;96030.84;5012612;28;20038;-71
2022/06/11 00:26:42;;;;;;;1999.90;999.90;;;;;;;17.30;58.83;96036.13;5011336;28;20029;-68
2022/06/11 00:29:08;;;;;;;1999.90;999.90;;;;;;;17.27;58.60;96026.00;5011072;28;20029;-67
2022/06/11 00:31:34;;;;;;;1999.90;999.90;;;;;;;17.24;58.87;96037.38;5012214;28;20383;-67
2022/06/11 00:34:00;;;;;;;1999.90;999.90;;;;;;;17.15;58.63;96018.63;5012628;28;20051;-67
2022/06/11 00:36:25;;;;;;;1999.90;999.90;;;;;;;17.16;58.80;96019.41;5012311;28;20061;-67
2022/06/11 00:38:52;;;;;;;1999.90;999.90;;;;;;;17.17;58.99;96029.06;5011468;28;20034;-67
2022/06/11 00:41:21;;;;;;;1999.90;999.90;;;;;;;17.01;59.04;95998.47;5012191;28;20581;-67
2022/06/11 00:43:46;;;;;;;1999.90;999.90;;;;;;;17.05;59.30;96005.56;5012193;28;20025;-67
2022/06/11 00:46:50;;;;;;;1999.90;999.90;;;;;;;17.12;59.23;96018.50;5012436;28;20556;-68
2022/06/11 00:49:37;;;;;;;1999.90;999.90;;;;;;;17.07;59.15;96022.16;5003095;28;20034;-67
2022/06/11 00:52:18;;;;;;;1999.90;999.90;;;;;;;17.00;59.32;96011.13;5010238;28;20029;-67
2022/06/11 00:54:53;;;;;;;1999.90;999.90;;;;;;;16.97;59.71;96010.97;5012257;28;20099;-67
2022/06/11 00:57:19;;;;;;;1999.90;999.90;;;;;;;16.97;59.86;96017.13;5010933;28;20022;-68
2022/06/11 00:59:55;;;;;;;1999.90;999.90;;;;;;;16.97;59.63;96008.28;5012209;28;20061;-66
2022/06/11 01:02:21;;;;;;;1999.90;999.90;;;;;;;16.92;59.51;95998.50;5010695;28;20068;-68
2022/06/11 01:04:53;;;;;;;1999.90;999.90;;;;;;;16.97;59.76;96003.69;5011977;28;20423;-67
2022/06/11 01:07:46;;;;;;;1999.90;999.90;;;;;;;16.93;60.12;96002.75;5011734;28;20025;-67
2022/06/11 01:10:29;;;;;;;1999.90;999.90;;;;;;;16.92;60.12;96001.19;5011542;28;20030;-67
2022/06/11 01:13:15;;;;;;;1999.90;999.90;;;;;;;16.94;59.83;96001.66;5010300;28;20466;-67
2022/06/11 01:15:53;;;;;;;1999.90;999.90;;;;;;;16.88;59.96;96003.72;5011429;28;20052;-67
2022/06/11 01:18:28;;;;;;;1999.90;999.90;;;;;;;16.90;59.88;96003.41;5011511;28;20052;-68
2022/06/11 01:21:28;;;;;;;1999.90;999.90;;;;;;;16.87;59.91;96002.16;5009899;28;20033;-67
2022/06/11 01:24:03;;;;;;;1999.90;999.90;;;;;;;16.83;60.13;95995.06;5010482;28;20037;-67
2022/06/11 01:26:46;;;;;;;1999.90;999.90;;;;;;;16.85;59.90;96003.59;5011317;28;20026;-67
2022/06/11 01:29:11;;;;;;;1999.90;999.90;;;;;;;16.83;59.75;96005.81;5011501;28;20026;-67
2022/06/11 01:31:49;;;;;;;1999.90;999.90;;;;;;;16.82;60.02;96004.22;5009525;28;20478;-67
2022/06/11 01:34:33;;;;;;;1999.90;999.90;;;;;;;16.82;60.20;95996.16;5011367;28;20091;-67
2022/06/11 01:37:06;;;;;;;1999.90;999.90;;;;;;;16.72;60.10;95986.56;5011356;28;20022;-67
2022/06/11 01:39:38;;;;;;;1999.90;999.90;;;;;;;16.71;60.28;95994.94;5010099;28;20494;-66
2022/06/11 01:42:16;;;;;;;1999.90;999.90;;;;;;;16.79;60.42;95996.84;5009646;28;20022;-67
2022/06/11 01:44:43;;;;;;;1999.90;999.90;;;;;;;16.76;60.22;95989.41;5009906;28;20497;-67
2022/06/11 01:47:12;;;;;;;1999.90;999.90;;;;;;;16.74;60.41;96002.38;5009837;28;20021;-67
2022/06/11 01:49:44;;;;;;;1999.90;999.90;;;;;;;16.72;60.83;95997.31;5009764;28;20414;-67
2022/06/11 01:52:33;;;;;;;1999.90;999.90;;;;;;;16.65;60.55;95988.94;5010633;28;20038;-67
2022/06/11 01:55:28;;;;;;;1999.90;999.90;;;;;;;16.68;60.73;95988.28;5009522;28;20033;-66
2022/06/11 01:58:12;;;;;;;1999.90;999.90;;;;;;;16.69;60.62;95991.78;5009693;28;20076;-66
2022/06/11 02:01:01;;;;;;;1999.90;999.90;;;;;;;16.60;60.64;95983.75;5008977;28;20496;-67
2022/06/11 02:03:35;;;;;;;1999.90;999.90;;;;;;;16.61;60.69;95994.16;5010396;28;20470;-67
2022/06/11 02:06:12;;;;;;;1999.90;999.90;;;;;;;16.58;60.97;95989.44;5010987;28;20038;-67
2022/06/11 02:08:56;;;;;;;1999.90;999.90;;;;;;;16.51;61.17;95982.97;5009124;28;20060;-67
2022/06/11 02:11:54;;;;;;;1999.90;999.90;;;;;;;16.58;61.25;95991.31;5010385;28;20038;-67
2022/06/11 02:14:36;;;;;;;1999.90;999.90;;;;;;;16.51;61.14;95986.44;4998889;28;20040;-67
2022/06/11 02:17:15;;;;;;;1999.90;999.90;;;;;;;16.53;61.26;96002.22;5010938;28;20030;-67
2022/06/11 02:19:54;;;;;;;1999.90;999.90;;;;;;;16.54;61.48;95998.47;5009171;28;20029;-67
2022/06/11 02:22:38;;;;;;;1999.90;999.90;;;;;;;16.49;61.38;95999.44;5010422;28;20030;-67
2022/06/11 02:25:23;;;;;;;1999.90;999.90;;;;;;;16.46;61.53;95985.84;5009535;28;20024;-67
2022/06/11 02:27:52;;;;;;;1999.90;999.90;;;;;;;16.49;61.76;96002.09;5010613;28;20022;-67
2022/06/11 02:30:21;;;;;;;1999.90;999.90;;;;;;;16.46;61.72;95993.91;5010157;28;20034;-68
2022/06/11 02:32:47;;;;;;;1999.90;999.90;;;;;;;16.53;61.79;96007.59;5010404;28;20032;-67
2022/06/11 02:35:23;;;;;;;1999.90;999.90;;;;;;;16.52;61.57;95997.97;5009139;28;20018;-67
2022/06/11 02:37:48;;;;;;;1999.90;999.90;;;;;;;16.47;61.50;96004.31;5010349;28;20034;-68
2022/06/11 02:40:18;;;;;;;1999.90;999.90;;;;;;;16.42;61.87;95998.31;5009888;28;20017;-68
2022/06/11 02:42:45;;;;;;;1999.90;999.90;;;;;;;16.37;61.77;95985.84;5009101;28;20030;-67
2022/06/11 02:45:12;;;;;;;1999.90;999.90;;;;;;;16.52;61.46;96017.56;5008831;28;20037;-67
2022/06/11 02:47:40;;;;;;;1999.90;999.90;;;;;;;16.70;60.96;96014.84;5009880;28;20355;-67
2022/06/11 02:50:06;;;;;;;1999.90;999.90;;;;;;;16.68;60.74;96006.31;5008687;28;20683;-67
2022/06/11 02:52:31;;;;;;;1999.90;999.90;;;;;;;16.39;61.59;96002.44;5009761;28;20026;-67
2022/06/11 02:54:56;;;;;;;1999.90;999.90;;;;;;;16.47;61.79;96030.38;5010255;28;20026;-67
2022/06/11 02:57:26;;;;;;;1999.90;999.90;;;;;;;16.44;61.73;96018.38;5010089;28;20378;-67
2022/06/11 02:59:52;;;;;;;1999.90;999.90;;;;;;;16.46;61.72;96026.13;5009803;28;20030;-67
2022/06/11 03:02:19;;;;;;;1999.90;999.90;;;;;;;16.45;61.88;96028.03;5008697;28;20022;-68
2022/06/11 03:04:44;;;;;;;1999.90;999.90;;;;;;;16.45;61.65;96029.91;5009631;28;20097;-67
2022/06/11 03:07:09;;;;;;;1999.90;999.90;;;;;;;16.35;61.58;96012.25;5008596;28;20064;-67
2022/06/11 03:09:37;;;;;;;1999.90;999.90;;;;;;;16.46;61.79;96028.81;5009810;28;20029;-67
2022/06/11 03:12:05;;;;;;;1999.90;999.90;;;;;;;16.42;61.46;96028.66;5008408;28;20029;-67
2022/06/11 03:14:30;;;;;;;1999.90;999.90;;;;;;;16.32;61.31;96013.66;5009556;28;20037;-67
2022/06/11 03:16:56;;;;;;;1999.90;999.90;;;;;;;16.46;61.31;96034.97;5008637;28;20022;-67
2022/06/11 03:19:22;;;;;;;1999.90;999.90;;;;;;;16.41;61.57;96032.44;5009902;28;20053;-66
2022/06/11 03:21:49;;;;;;;1999.90;999.90;;;;;;;16.47;61.63;96033.84;5009512;28;20030;-67
2022/06/11 03:24:14;;;;;;;1999.90;999.90;;;;;;;16.50;61.58;96040.50;5009805;28;20029;-67
2022/06/11 03:26:40;;;;;;;1999.90;999.90;;;;;;;16.49;61.57;96034.34;5008294;28;20026;-67
2022/06/11 03:29:05;;;;;;;1999.90;999.90;;;;;;;16.51;61.41;96039.38;5009766;28;20447;-67
2022/06/11 03:31:31;;;;;;;1999.90;999.90;;;;;;;16.48;61.24;96023.88;5009298;28;20054;-67
2022/06/11 03:33:57;;;;;;;1999.90;999.90;;;;;;;16.55;61.26;96037.63;5008305;28;20032;-67
2022/06/11 03:36:22;;;;;;;1999.90;999.90;;;;;;;16.51;61.26;96018.69;5009515;28;20109;-67
2022/06/11 03:38:47;;;;;;;1999.90;999.90;;;;;;;16.61;61.27;96029.06;5013280;28;20108;-67
2022/06/11 03:41:14;;;;;;;1999.90;999.90;;;;;;;16.70;60.88;96042.50;5013259;28;20100;-67
2022/06/11 03:43:39;;;;;;;1999.90;999.90;;;;;;;16.71;61.13;96040.59;5013459;28;20038;-67
2022/06/11 03:46:06;;;;;;;1999.90;999.90;;;;;;;16.71;60.83;96038.72;5012333;28;20499;-67
2022/06/11 03:48:32;;;;;;;1999.90;999.90;;;;;;;16.85;60.97;96057.34;5011939;28;20026;-66
2022/06/11 03:50:59;;;;;;;1999.90;999.90;;;;;;;16.80;60.86;96042.19;5011493;28;20060;-67
2022/06/11 03:53:27;;;;;;;1999.90;999.90;;;;;;;16.96;60.74;96050.50;5013173;28;20037;-67
2022/06/11 03:55:52;;;;;;;1999.90;999.90;;;;;;;16.91;60.73;96042.63;5013208;28;20057;-67
2022/06/11 03:58:19;;;;;;;1999.90;999.90;;;;;;;17.06;60.53;96055.53;5011551;28;20026;-67
2022/06/11 04:03:30;;;;;;;1999.90;999.90;;;;;;;17.59;59.87;96064.88;5013149;28;20401;-67
2022/06/11 04:05:56;;;;;;;1999.90;999.90;;;;;;;17.96;59.13;96057.06;5013029;28;20445;-67
2022/06/11 04:08:24;;;;;;;1999.90;999.90;;;;;;;18.44;58.14;96066.50;5012875;28;20467;-67
2022/06/11 04:10:51;;;;;;;1999.90;999.90;;;;;;;18.85;57.08;96067.53;5012527;28;20032;-67
2022/06/11 04:13:19;;;;;;;1999.90;999.90;;;;;;;19.13;56.04;96057.69;5013028;28;20101;-67
2022/06/11 04:15:46;;;;;;;1999.90;999.90;;;;;;;19.58;55.19;96077.59;5012980;28;20476;-67
2022/06/11 04:18:33;;;;;;;1999.90;999.90;;;;;;;19.88;53.88;96067.34;5012771;28;20114;-67
2022/06/11 04:21:01;;;;;;;1999.90;999.90;;;;;;;20.11;53.05;96073.78;5012416;28;20040;-68
2022/06/11 04:23:30;;;;;;;1999.90;999.90;;;;;;;20.45;52.66;96079.78;5012638;28;20018;-68
2022/06/11 04:26:01;;;;;;;1999.90;999.90;;;;;;;20.71;51.53;96077.41;5012657;28;20034;-68
2022/06/11 04:28:28;;;;;;;1999.90;999.90;;;;;;;20.93;50.49;96073.34;5011114;28;20033;-68
2022/06/11 04:30:55;;;;;;;1999.90;999.90;;;;;;;21.17;49.64;96072.41;5010930;28;20032;-67
2022/06/11 04:33:20;;;;;;;1999.90;999.90;;;;;;;21.29;49.56;96063.41;5012562;28;20057;-67
2022/06/11 04:35:46;;;;;;;1999.90;999.90;;;;;;;21.45;48.70;96055.34;5012517;28;20089;-67
2022/06/11 04:38:12;;;;;;;1999.90;999.90;;;;;;;21.71;48.32;96074.50;5012410;28;20054;-68
2022/06/11 04:40:37;;;;;;;1999.90;999.90;;;;;;;21.67;48.08;96051.97;5010552;28;20033;-68
2022/06/11 04:43:03;;;;;;;1999.90;999.90;;;;;;;21.98;47.66;96074.69;5012502;28;20032;-67
2022/06/11 04:45:28;;;;;;;1999.90;999.90;;;;;;;22.13;47.42;96068.47;5012174;28;20018;-68
2022/06/11 04:47:54;;;;;;;1999.90;999.90;;;;;;;22.33;47.07;96065.75;5011865;28;20490;-68
2022/06/11 04:50:19;;;;;;;1999.90;999.90;;;;;;;22.41;46.93;96072.88;5009614;28;20037;-68
2022/06/11 04:52:45;;;;;;;1999.90;999.90;;;;;;;22.54;46.88;96074.31;5011954;28;20045;-68
2022/06/11 04:55:10;;;;;;;1999.90;999.90;;;;;;;22.66;46.39;96081.50;5012138;28;20121;-67
2022/06/11 04:57:36;;;;;;;1999.90;999.90;;;;;;;22.78;45.91;96070.50;5012016;28;20029;-68
2022/06/11 05:00:04;;;;;;;1999.90;999.90;;;;;;;22.91;45.50;96076.56;5010414;28;20017;-68
2022/06/11 05:02:30;;;;;;;1999.90;999.90;;;;;;;22.93;44.99;96071.56;5010404;28;20049;-68
2022/06/11 05:04:55;;;;;;;1999.90;999.90;;;;;;;22.92;45.00;96068.06;5012192;28;20030;-68
2022/06/11 05:07:21;;;;;;;1999.90;999.90;;;;;;;23.02;45.12;96081.03;5011877;28;20048;-67
2022/06/11 05:09:47;;;;;;;1999.90;999.90;;;;;;;23.13;45.28;96086.63;5010545;28;20029;-68
2022/06/11 05:12:13;;;;;;;1999.90;999.90;;;;;;;23.20;45.23;96092.22;5010280;28;20030;-68
2022/06/11 05:14:38;;;;;;;1999.90;999.90;;;;;;;23.24;45.14;96078.69;5011544;28;20354;-67
2022/06/11 05:17:04;;;;;;;1999.90;999.90;;;;;;;23.28;44.78;96080.31;5011828;28;20383;-67
2022/06/11 05:19:30;;;;;;;1999.90;999.90;;;;;;;23.37;44.77;96084.72;5011346;28;20084;-68
2022/06/11 05:21:56;;;;;;;1999.90;999.90;;;;;;;23.31;45.17;96085.03;5009855;28;20080;-68
2022/06/11 05:24:22;;;;;;;1999.90;999.90;;;;;;;23.39;44.68;96087.84;5011447;28;20080;-68
2022/06/11 05:27:00;;;;;;;1999.90;999.90;;;;;;;23.47;44.55;96092.25;5010280;28;20021;-68
2022/06/11 05:29:31;;;;;;;1999.90;999.90;;;;;;;23.53;44.69;96093.50;5011328;28;20032;-68
2022/06/11 05:31:58;;;;;;;1999.90;999.90;;;;;;;23.51;44.64;96084.94;5009840;28;20058;-68
2022/06/11 05:34:23;;;;;;;1999.90;999.90;;;;;;;23.34;44.23;96065.31;5009941;28;20038;-68
2022/06/11 05:36:49;;;;;;;1999.90;999.90;;;;;;;23.56;44.45;96101.72;5011392;28;20029;-67
2022/06/11 05:39:14;;;;;;;1999.90;999.90;;;;;;;23.48;44.69;96085.66;5011388;28;20030;-67
2022/06/11 05:41:39;;;;;;;1999.90;999.90;;;;;;;23.52;44.70;96081.09;5010666;28;20022;-68
2022/06/11 05:44:05;;;;;;;1999.90;999.90;;;;;;;23.67;44.20;96099.19;5009985;28;20029;-68
2022/06/11 05:46:32;;;;;;;1999.90;999.90;;;;;;;23.71;44.87;96089.16;5011028;28;20106;-69
2022/06/11 05:49:01;;;;;;;1999.90;999.90;;;;;;;23.77;44.49;96093.13;5011133;28;20036;-68
2022/06/11 05:51:40;;;;;;;1999.90;999.90;;;;;;;23.80;45.02;96088.88;5011014;28;20028;-68
2022/06/11 05:54:10;;;;;;;1999.90;999.90;;;;;;;23.77;44.60;96081.50;5010801;28;20084;-68
2022/06/11 05:56:37;;;;;;;1999.90;999.90;;;;;;;23.91;44.57;96091.78;5011165;28;20666;-67
2022/06/11 05:59:10;;;;;;;1999.90;999.90;;;;;;;23.85;44.22;96086.66;5010969;28;20113;-68
2022/06/11 06:01:39;;;;;;;1999.90;999.90;;;;;;;23.96;44.48;96092.25;5010305;28;20037;-68
2022/06/11 06:04:05;;;;;;;1999.90;999.90;;;;;;;23.82;44.46;96073.03;5009773;28;20056;-68
2022/06/11 06:06:31;;;;;;;1999.90;999.90;;;;;;;23.90;44.36;96090.97;5010605;28;20049;-69
2022/06/11 06:08:57;;;;;;;1999.90;999.90;;;;;;;23.80;44.03;96091.59;5010948;28;20022;-68
2022/06/11 06:11:22;;;;;;;1999.90;999.90;;;;;;;23.86;44.15;96079.31;5009328;28;20022;-68
2022/06/11 06:13:47;;;;;;;1999.90;999.90;;;;;;;23.49;44.89;96098.09;5009871;28;20029;-68
2022/06/11 06:16:21;;;;;;;1999.90;999.90;;;;;;;23.35;45.19;96080.44;5010561;28;20088;-68
2022/06/11 06:18:48;;;;;;;1999.90;999.90;;;;;;;23.66;44.85;96092.19;5009375;28;20052;-68
2022/06/11 06:21:15;;;;;;;1999.90;999.90;;;;;;;23.86;44.93;96101.03;5010307;28;20105;-68
2022/06/11 06:23:41;;;;;;;1999.90;999.90;;;;;;;23.98;45.05;96100.03;5010398;28;20026;-68
2022/06/11 06:26:06;;;;;;;1999.90;999.90;;;;;;;24.08;44.84;96091.25;5009360;28;20544;-68
2022/06/11 06:28:33;;;;;;;1999.90;999.90;;;;;;;23.47;45.05;96101.19;5010385;28;20088;-69
2022/06/11 06:30:59;;;;;;;1999.90;999.90;;;;;;;23.92;44.64;96098.78;5010231;28;20022;-68
2022/06/11 06:33:26;;;;;;;1999.90;999.90;;;;;;;23.66;44.95;96102.28;5010736;28;20026;-68
2022/06/11 06:35:51;;;;;;;1999.90;999.90;;;;;;;23.52;45.46;96106.31;5010335;28;20113;-68
2022/06/11 06:38:16;;;;;;;1999.90;999.90;;;;;;;22.91;46.81;96092.84;5008718;28;20120;-68
2022/06/11 06:40:42;;;;;;;1999.90;999.90;;;;;;;22.92;45.85;96105.25;5009957;28;20076;-68
2022/06/11 06:43:08;;;;;;;1999.90;999.90;;;;;;;23.28;45.26;96112.09;5010214;28;20030;-68
2022/06/11 06:45:33;;;;;;;1999.90;999.90;;;;;;;23.66;45.14;96097.63;5010377;28;20418;-69
2022/06/11 06:47:59;;;;;;;1999.90;999.90;;;;;;;23.66;45.29;96102.28;5010066;28;20028;-67
2022/06/11 06:50:24;;;;;;;1999.90;999.90;;;;;;;23.84;44.11;96097.88;5008234;28;20112;-68
2022/06/11 06:52:49;;;;;;;1999.90;999.90;;;;;;;24.04;43.83;96107.50;5010019;28;20113;-68
2022/06/11 06:55:15;;;;;;;1999.90;999.90;;;;;;;23.68;43.81;96105.41;5008897;28;20121;-68
2022/06/11 06:57:40;;;;;;;1999.90;999.90;;;;;;;23.05;44.15;96088.47;5008714;28;20029;-68
2022/06/11 07:00:08;;;;;;;1999.90;999.90;;;;;;;23.43;45.24;96110.41;5010051;28;20454;-68
2022/06/11 07:02:33;;;;;;;1999.90;999.90;;;;;;;23.90;45.12;96104.56;5009754;28;20474;-68
2022/06/11 07:04:59;;;;;;;1999.90;999.90;;;;;;;23.00;43.93;96099.63;5009861;28;20083;-68
2022/06/11 07:07:25;;;;;;;1999.90;999.90;;;;;;;22.82;44.35;96115.53;5008743;28;20025;-68
2022/06/11 07:09:53;;;;;;;1999.90;999.90;;;;;;;23.53;42.90;96099.72;5009727;28;20033;-68
2022/06/11 07:12:18;;;;;;;1999.90;999.90;;;;;;;22.39;43.72;96113.13;5008915;28;20474;-68
2022/06/11 07:14:44;;;;;;;1999.90;999.90;;;;;;;22.38;44.60;96101.50;5009869;28;20026;-68
2022/06/11 07:17:10;;;;;;;1999.90;999.90;;;;;;;23.19;43.75;96103.44;5008455;28;20473;-69
2022/06/11 07:19:42;;;;;;;1999.90;999.90;;;;;;;23.55;42.72;96111.03;5009880;28;20032;-68
2022/06/11 07:22:14;;;;;;;1999.90;999.90;;;;;;;22.49;44.59;96107.13;5009562;28;20026;-68
2022/06/11 07:24:41;;;;;;;1999.90;999.90;;;;;;;22.64;45.33;96109.00;5009694;28;20445;-68
2022/06/11 07:27:17;;;;;;;1999.90;999.90;;;;;;;23.47;43.92;96100.41;5009741;28;20029;-68
2022/06/11 07:29:47;;;;;;;1999.90;999.90;;;;;;;24.10;42.68;96106.00;5008449;28;20557;-68
2022/06/11 07:32:17;;;;;;;1999.90;999.90;;;;;;;24.38;41.72;96104.88;5009230;28;20060;-68
2022/06/11 07:34:43;;;;;;;1999.90;999.90;;;;;;;24.61;41.46;96100.09;5009520;28;20026;-68
2022/06/11 07:37:09;;;;;;;1999.90;999.90;;;;;;;24.14;40.94;96095.19;5009594;28;20117;-68
2022/06/11 07:39:35;;;;;;;1999.90;999.90;;;;;;;24.08;41.59;96085.81;5009559;28;20034;-68
2022/06/11 07:42:01;;;;;;;1999.90;999.90;;;;;;;23.93;42.05;96106.56;5009394;28;20041;-68
2022/06/11 07:44:26;;;;;;;1999.90;999.90;;;;;;;24.55;40.47;96103.50;5008401;28;20040;-69
2022/06/11 07:46:52;;;;;;;1999.90;999.90;;;;;;;24.40;40.49;96090.91;5009532;28;20346;-69
2022/06/11 07:49:17;;;;;;;1999.90;999.90;;;;;;;24.77;40.88;96093.66;5009709;28;20037;-68
2022/06/11 07:51:43;;;;;;;1999.90;999.90;;;;;;;25.05;41.28;96093.16;5009084;28;20025;-69
2022/06/11 07:54:08;;;;;;;1999.90;999.90;;;;;;;25.18;40.37;96078.13;5009391;28;20081;-68
2022/06/11 07:56:35;;;;;;;1999.90;999.90;;;;;;;25.39;40.26;96089.25;5008087;28;20037;-68
2022/06/11 07:59:00;;;;;;;1999.90;999.90;;;;;;;25.49;38.83;96095.94;5009102;28;20433;-68
2022/06/11 08:01:25;;;;;;;1999.90;999.90;;;;;;;25.45;37.52;96094.34;5009074;28;20026;-68
2022/06/11 08:03:50;;;;;;;1999.90;999.90;;;;;;;25.25;36.42;96097.28;5009272;28;20037;-68
2022/06/11 08:06:16;;;;;;;1999.90;999.90;;;;;;;25.04;37.78;96100.56;5009255;28;20037;-68
2022/06/11 08:08:41;;;;;;;1999.90;999.90;;;;;;;25.19;37.44;96081.66;5007767;28;20463;-68
2022/06/11 08:11:07;;;;;;;1999.90;999.90;;;;;;;25.06;37.58;96103.72;5007648;28;20044;-68
2022/06/11 08:13:33;;;;;;;1999.90;999.90;;;;;;;24.79;36.63;96099.50;5009186;28;20018;-68
2022/06/11 08:16:00;;;;;;;1999.90;999.90;;;;;;;24.63;37.67;96094.28;5007901;28;20029;-68
2022/06/11 08:18:26;;;;;;;1999.90;999.90;;;;;;;24.90;36.41;96101.19;5009195;28;20177;-68
2022/06/11 08:20:51;;;;;;;1999.90;999.90;;;;;;;24.52;36.84;96098.84;5008630;28;20057;-68
2022/06/11 08:23:19;;;;;;;1999.90;999.90;;;;;;;24.58;36.98;96098.13;5010422;28;20474;-68
2022/06/11 08:25:44;;;;;;;1999.90;999.90;;;;;;;25.30;36.96;96094.22;5012704;28;20443;-68
2022/06/11 08:28:12;;;;;;;1999.90;999.90;;;;;;;25.07;35.88;96099.03;5012441;28;20050;-68
2022/06/11 08:30:38;;;;;;;1999.90;999.90;;;;;;;24.88;35.35;96105.44;5010799;28;20438;-68
2022/06/11 08:33:03;;;;;;;1999.90;999.90;;;;;;;24.78;36.50;96095.22;5012567;28;20026;-68
2022/06/11 08:35:30;;;;;;;1999.90;999.90;;;;;;;24.93;37.21;96096.13;5012526;28;20034;-68
2022/06/11 08:37:56;;;;;;;1999.90;999.90;;;;;;;25.33;35.47;96090.72;5012546;28;20030;-68
2022/06/11 08:40:29;;;;;;;1999.90;999.90;;;;;;;25.35;35.03;96098.53;5012116;28;20038;-68
2022/06/11 08:43:18;;;;;;;1999.90;999.90;;;;;;;24.72;35.39;96078.47;5012438;28;20033;-68
2022/06/11 08:46:03;;;;;;;1999.90;999.90;;;;;;;24.99;36.30;96100.91;5012521;28;20022;-69
2022/06/11 08:48:44;;;;;;;1999.90;999.90;;;;;;;25.40;36.06;96100.91;5012281;28;20394;-68
2022/06/11 08:51:28;;;;;;;1999.90;999.90;;;;;;;25.35;34.52;96099.31;5011669;28;20369;-68
2022/06/11 08:53:59;;;;;;;1999.90;999.90;;;;;;;25.63;34.71;96098.75;5011915;28;20041;-68
2022/06/11 08:57:32;;;;;;;1999.90;999.90;;;;;;;26.00;34.04;96092.44;5012191;28;20026;-69
2022/06/11 09:00:21;;;;;;;1999.90;999.90;;;;;;;25.23;34.28;96093.34;4952591;28;20117;-68
2022/06/11 09:03:22;;;;;;;1999.90;999.90;;;;;;;25.69;34.25;96101.91;5010426;28;20037;-69
2022/06/11 09:06:02;;;;;;;1999.90;999.90;;;;;;;25.53;34.58;96099.44;5012077;28;20030;-68
2022/06/11 09:08:30;;;;;;;1999.90;999.90;;;;;;;25.29;35.02;96095.38;5011762;28;20026;-69
2022/06/11 09:11:21;;;;;;;1999.90;999.90;;;;;;;25.64;33.41;96091.34;5010321;28;20030;-68
2022/06/11 09:13:52;;;;;;;1999.90;999.90;;;;;;;26.16;33.82;96092.13;5011787;28;20510;-68
2022/06/11 09:16:29;;;;;;;1999.90;999.90;;;;;;;26.58;33.42;96088.06;5011363;28;20037;-68
2022/06/11 09:19:19;;;;;;;1999.90;999.90;;;;;;;26.58;32.69;96082.59;5011583;28;20088;-69
2022/06/11 09:22:20;;;;;;;1999.90;999.90;;;;;;;26.98;32.16;96089.72;5011169;28;20592;-68
2022/06/11 09:24:56;;;;;;;1999.90;999.90;;;;;;;27.20;31.48;96088.59;4950872;29;20031;-68
2022/06/11 09:27:50;;;;;;;1999.90;999.90;;;;;;;27.68;31.45;96076.50;4999148;28;20390;-69
2022/06/11 09:30:19;;;;;;;1999.90;999.90;;;;;;;27.78;30.82;96086.66;5009772;28;20041;-68
2022/06/11 09:32:52;;;;;;;1999.90;999.90;;;;;;;27.94;28.83;96073.34;5010250;28;20026;-69
2022/06/11 09:35:29;;;;;;;1999.90;999.90;;;;;;;28.31;29.26;96083.06;5010775;28;20037;-68
2022/06/11 09:38:19;;;;;;;1999.90;999.90;;;;;;;28.48;29.08;96081.44;5011376;28;20037;-69
2022/06/11 09:41:09;;;;;;;1999.90;999.90;;;;;;;28.79;28.18;96059.78;5010991;28;20025;-69
2022/06/11 09:43:34;;;;;;;1999.90;999.90;;;;;;;28.56;27.83;96077.50;5011278;28;20037;-68
2022/06/11 09:46:22;;;;;;;1999.90;999.90;;;;;;;29.07;27.47;96076.06;5011163;28;20026;-69
2022/06/11 09:49:12;;;;;;;1999.90;999.90;;;;;;;29.42;27.57;96077.75;5011099;28;20304;-69
2022/06/11 09:51:59;;;;;;;1999.90;999.90;;;;;;;29.52;26.79;96071.41;5010388;28;20033;-68
2022/06/11 09:54:48;;;;;;;1999.90;999.90;;;;;;;29.25;26.14;96076.72;5010726;28;20076;-69
2022/06/11 09:57:27;;;;;;;1999.90;999.90;;;;;;;29.59;26.58;96075.34;5009679;28;20105;-69
2022/06/11 10:00:08;;;;;;;1999.90;999.90;;;;;;;29.67;27.04;96063.88;5009397;28;20076;-68
2022/06/11 10:05:43;;;;;;;1999.90;999.90;;;;;;;30.07;28.25;96075.25;5008876;28;20049;-69
2022/06/11 10:08:23;;;;;;;1999.90;999.90;;;;;;;29.84;26.84;96069.59;5010603;28;20034;-69
2022/06/11 10:10:50;;;;;;;1999.90;999.90;;;;;;;30.29;26.33;96064.84;5010399;28;20598;-69
2022/06/11 10:13:45;;;;;;;1999.90;999.90;;;;;;;30.71;24.49;96076.50;5010582;28;20021;-69
2022/06/11 10:16:27;;;;;;;1999.90;999.90;;;;;;;30.97;25.05;96069.50;4984026;28;20409;-69
2022/06/11 10:18:55;;;;;;;1999.90;999.90;;;;;;;31.10;25.19;96075.97;5010338;28;20018;-69
2022/06/11 10:21:25;;;;;;;1999.90;999.90;;;;;;;28.18;28.58;96077.22;5009931;28;20037;-69
2022/06/11 10:23:57;;;;;;;1999.90;999.90;;;;;;;26.33;30.90;96085.19;5010413;28;20026;-69
2022/06/11 10:26:32;;;;;;;1999.90;999.90;;;;;;;26.69;31.52;96067.81;5010298;28;20026;-68
2022/06/11 10:29:13;;;;;;;1999.90;999.90;;;;;;;26.79;30.90;96077.19;5009072;28;20029;-69
2022/06/11 10:31:46;;;;;;;1999.90;999.90;;;;;;;26.30;31.34;96073.09;5010046;28;20018;-69
2022/06/11 10:34:18;;;;;;;1999.90;999.90;;;;;;;27.51;29.78;96069.09;5008748;28;20108;-68
2022/06/11 10:37:13;;;;;;;1999.90;999.90;;;;;;;28.06;28.03;96088.59;5010151;28;20030;-69
2022/06/11 10:39:53;;;;;;;1999.90;999.90;;;;;;;28.65;28.14;96068.84;5003844;28;20720;-69
2022/06/11 10:42:30;;;;;;;1999.90;999.90;;;;;;;27.73;28.65;96076.13;5009914;28;20099;-69
2022/06/11 10:44:56;;;;;;;1999.90;999.90;;;;;;;28.70;28.88;96063.72;5010519;28;20018;-69
2022/06/11 10:47:34;;;;;;;1999.90;999.90;;;;;;;28.79;28.50;96066.03;5007932;28;20104;-68
2022/06/11 10:50:07;;;;;;;1999.90;999.90;;;;;;;28.13;27.96;96069.41;5008276;28;20033;-70
2022/06/11 10:53:03;;;;;;;1999.90;999.90;;;;;;;28.84;27.52;96053.88;5008265;28;20095;-68
2022/06/11 10:55:49;;;;;;;1999.90;999.90;;;;;;;29.47;27.36;96062.84;5008521;28;20037;-69
2022/06/11 10:58:25;;;;;;;1999.90;999.90;;;;;;;29.74;26.27;96063.06;5009780;28;20033;-69
2022/06/11 11:00:58;;;;;;;1999.90;999.90;;;;;;;30.15;26.41;96051.28;5009737;28;20054;-68
2022/06/11 11:03:31;;;;;;;1999.90;999.90;;;;;;;30.64;26.05;96058.13;5008821;28;20541;-69
2022/06/11 11:06:26;;;;;;;1999.90;999.90;;;;;;;30.68;24.51;96058.09;5010176;28;20036;-69
2022/06/11 11:08:55;;;;;;;1999.90;999.90;;;;;;;30.52;25.14;96042.22;5004370;28;20038;-69
2022/06/11 11:11:21;;;;;;;1999.90;999.90;;;;;;;29.78;25.97;96048.09;5008284;28;20022;-69
2022/06/11 11:13:48;;;;;;;1999.90;999.90;;;;;;;28.16;27.21;96062.38;5009927;28;20028;-69
2022/06/11 11:16:15;;;;;;;1999.90;999.90;;;;;;;27.73;28.03;96065.19;5009613;28;20030;-69
2022/06/11 11:18:55;;;;;;;1999.90;999.90;;;;;;;26.34;30.90;96073.88;5009688;28;20022;-69
2022/06/11 11:21:49;;;;;;;1999.90;999.90;;;;;;;26.06;30.84;96062.84;5009223;28;20022;-68